sensor_id;sensor_type;location;lat;lon;timestamp;temperature;humidity
86305;DHT22;76964;49.316;7.118;2024-03-29T00:00:47;17.60;74.90
86305;DHT22;76964;49.316;7.118;2024-03-29T00:03:14;17.60;75.10
86305;DHT22;76964;49.316;7.118;2024-03-29T00:05:41;17.60;74.90
86305;DHT22;76964;49.316;7.118;2024-03-29T00:08:07;17.70;75.00
86305;DHT22;76964;49.316;7.118;2024-03-29T00:10:33;17.60;74.90
86305;DHT22;76964;49.316;7.118;2024-03-29T00:12:59;17.60;75.00
86305;DHT22;76964;49.316;7.118;2024-03-29T00:15:26;17.60;75.10
86305;DHT22;76964;49.316;7.118;2024-03-29T00:17:52;17.60;75.20
86305;DHT22;76964;49.316;7.118;2024-03-29T00:20:19;17.70;75.20
86305;DHT22;76964;49.316;7.118;2024-03-29T00:22:46;17.80;75.00
86305;DHT22;76964;49.316;7.118;2024-03-29T00:25:12;17.80;74.60
86305;DHT22;76964;49.316;7.118;2024-03-29T00:27:38;17.90;74.30
86305;DHT22;76964;49.316;7.118;2024-03-29T00:30:05;17.90;74.20
86305;DHT22;76964;49.316;7.118;2024-03-29T00:32:31;17.80;74.50
86305;DHT22;76964;49.316;7.118;2024-03-29T00:34:58;17.80;74.50
86305;DHT22;76964;49.316;7.118;2024-03-29T00:37:25;17.80;75.10
86305;DHT22;76964;49.316;7.118;2024-03-29T00:39:51;17.80;74.40
86305;DHT22;76964;49.316;7.118;2024-03-29T00:42:17;17.80;74.50
86305;DHT22;76964;49.316;7.118;2024-03-29T00:44:44;17.70;74.60
86305;DHT22;76964;49.316;7.118;2024-03-29T00:47:10;17.70;74.80
86305;DHT22;76964;49.316;7.118;2024-03-29T00:49:36;17.70;74.90
86305;DHT22;76964;49.316;7.118;2024-03-29T00:52:03;17.70;74.80
86305;DHT22;76964;49.316;7.118;2024-03-29T00:54:31;17.70;74.80
86305;DHT22;76964;49.316;7.118;2024-03-29T00:56:57;17.70;74.90
86305;DHT22;76964;49.316;7.118;2024-03-29T00:59:24;17.60;74.90
86305;DHT22;76964;49.316;7.118;2024-03-29T01:01:50;17.60;75.00
86305;DHT22;76964;49.316;7.118;2024-03-29T01:04:16;17.60;75.20
86305;DHT22;76964;49.316;7.118;2024-03-29T01:06:43;17.70;75.10
86305;DHT22;76964;49.316;7.118;2024-03-29T01:09:09;17.80;74.80
86305;DHT22;76964;49.316;7.118;2024-03-29T01:11:38;17.80;74.50
86305;DHT22;76964;49.316;7.118;2024-03-29T01:14:05;17.80;74.50
86305;DHT22;76964;49.316;7.118;2024-03-29T01:16:31;17.80;74.50
86305;DHT22;76964;49.316;7.118;2024-03-29T01:18:57;17.70;74.80
86305;DHT22;76964;49.316;7.118;2024-03-29T01:21:24;17.70;74.60
86305;DHT22;76964;49.316;7.118;2024-03-29T01:23:50;17.70;74.60
86305;DHT22;76964;49.316;7.118;2024-03-29T01:26:16;17.70;74.70
86305;DHT22;76964;49.316;7.118;2024-03-29T01:28:44;17.70;74.80
86305;DHT22;76964;49.316;7.118;2024-03-29T01:31:11;17.70;74.90
86305;DHT22;76964;49.316;7.118;2024-03-29T01:33:37;17.60;75.10
86305;DHT22;76964;49.316;7.118;2024-03-29T01:36:04;17.60;74.80
86305;DHT22;76964;49.316;7.118;2024-03-29T01:38:30;17.60;74.80
86305;DHT22;76964;49.316;7.118;2024-03-29T01:40:56;17.60;74.90
86305;DHT22;76964;49.316;7.118;2024-03-29T01:43:23;17.60;75.00
86305;DHT22;76964;49.316;7.118;2024-03-29T01:45:54;17.60;75.00
86305;DHT22;76964;49.316;7.118;2024-03-29T01:48:22;17.60;75.10
86305;DHT22;76964;49.316;7.118;2024-03-29T01:50:50;17.60;74.90
86305;DHT22;76964;49.316;7.118;2024-03-29T01:53:19;17.60;74.90
86305;DHT22;76964;49.316;7.118;2024-03-29T01:55:47;17.60;75.00
86305;DHT22;76964;49.316;7.118;2024-03-29T01:58:14;17.60;75.00
86305;DHT22;76964;49.316;7.118;2024-03-29T02:00:48;17.60;75.10
86305;DHT22;76964;49.316;7.118;2024-03-29T02:03:17;17.60;75.20
86305;DHT22;76964;49.316;7.118;2024-03-29T02:05:45;17.70;75.10
86305;DHT22;76964;49.316;7.118;2024-03-29T02:08:13;17.80;75.50
86305;DHT22;76964;49.316;7.118;2024-03-29T02:10:41;17.90;74.40
86305;DHT22;76964;49.316;7.118;2024-03-29T02:13:07;17.90;74.20
86305;DHT22;76964;49.316;7.118;2024-03-29T02:15:34;17.80;74.10
86305;DHT22;76964;49.316;7.118;2024-03-29T02:18:01;17.80;74.50
86305;DHT22;76964;49.316;7.118;2024-03-29T02:20:30;17.80;74.30
86305;DHT22;76964;49.316;7.118;2024-03-29T02:23:00;17.80;74.30
86305;DHT22;76964;49.316;7.118;2024-03-29T02:25:30;17.80;74.40
86305;DHT22;76964;49.316;7.118;2024-03-29T02:27:58;17.80;74.50
86305;DHT22;76964;49.316;7.118;2024-03-29T02:30:26;17.70;74.60
86305;DHT22;76964;49.316;7.118;2024-03-29T02:32:54;17.70;74.90
86305;DHT22;76964;49.316;7.118;2024-03-29T02:35:21;17.70;74.80
86305;DHT22;76964;49.316;7.118;2024-03-29T02:37:48;17.70;74.70
86305;DHT22;76964;49.316;7.118;2024-03-29T02:40:15;17.70;74.80
86305;DHT22;76964;49.316;7.118;2024-03-29T02:42:43;17.60;74.80
86305;DHT22;76964;49.316;7.118;2024-03-29T02:45:10;17.60;74.90
86305;DHT22;76964;49.316;7.118;2024-03-29T02:47:37;17.60;75.10
86305;DHT22;76964;49.316;7.118;2024-03-29T02:50:05;17.60;75.00
86305;DHT22;76964;49.316;7.118;2024-03-29T02:52:31;17.60;74.90
86305;DHT22;76964;49.316;7.118;2024-03-29T02:54:58;17.60;74.90
86305;DHT22;76964;49.316;7.118;2024-03-29T02:57:24;17.60;75.00
86305;DHT22;76964;49.316;7.118;2024-03-29T02:59:53;17.60;75.10
86305;DHT22;76964;49.316;7.118;2024-03-29T03:02:19;17.60;75.20
86305;DHT22;76964;49.316;7.118;2024-03-29T03:04:46;17.60;75.20
86305;DHT22;76964;49.316;7.118;2024-03-29T03:07:12;17.70;75.00
86305;DHT22;76964;49.316;7.118;2024-03-29T03:09:56;17.80;74.70
86305;DHT22;76964;49.316;7.118;2024-03-29T03:12:41;17.80;74.40
86305;DHT22;76964;49.316;7.118;2024-03-29T03:15:10;17.80;74.30
86305;DHT22;76964;49.316;7.118;2024-03-29T03:17:37;17.80;74.70
86305;DHT22;76964;49.316;7.118;2024-03-29T03:20:04;17.70;74.60
86305;DHT22;76964;49.316;7.118;2024-03-29T03:22:32;17.70;74.50
86305;DHT22;76964;49.316;7.118;2024-03-29T03:24:59;17.70;74.60
86305;DHT22;76964;49.316;7.118;2024-03-29T03:27:25;17.70;74.70
86305;DHT22;76964;49.316;7.118;2024-03-29T03:29:52;17.60;74.80
86305;DHT22;76964;49.316;7.118;2024-03-29T03:32:20;17.60;75.10
86305;DHT22;76964;49.316;7.118;2024-03-29T03:34:47;17.60;75.20
86305;DHT22;76964;49.316;7.118;2024-03-29T03:37:13;17.60;74.90
86305;DHT22;76964;49.316;7.118;2024-03-29T03:39:40;17.60;75.00
86305;DHT22;76964;49.316;7.118;2024-03-29T03:42:06;17.60;75.10
86305;DHT22;76964;49.316;7.118;2024-03-29T03:44:33;17.60;75.10
86305;DHT22;76964;49.316;7.118;2024-03-29T03:46:59;17.50;75.30
86305;DHT22;76964;49.316;7.118;2024-03-29T03:49:28;17.60;75.40
86305;DHT22;76964;49.316;7.118;2024-03-29T03:51:54;17.60;75.10
86305;DHT22;76964;49.316;7.118;2024-03-29T03:54:21;17.70;74.80
86305;DHT22;76964;49.316;7.118;2024-03-29T03:56:47;17.70;74.70
86305;DHT22;76964;49.316;7.118;2024-03-29T03:59:14;17.60;74.70
86305;DHT22;76964;49.316;7.118;2024-03-29T04:01:40;17.70;74.80
86305;DHT22;76964;49.316;7.118;2024-03-29T04:04:08;17.60;75.00
86305;DHT22;76964;49.316;7.118;2024-03-29T04:06:36;17.60;74.90
86305;DHT22;76964;49.316;7.118;2024-03-29T04:09:03;17.60;74.80
86305;DHT22;76964;49.316;7.118;2024-03-29T04:11:29;17.60;74.90
86305;DHT22;76964;49.316;7.118;2024-03-29T04:13:58;17.60;74.90
86305;DHT22;76964;49.316;7.118;2024-03-29T04:16:24;17.60;75.00
86305;DHT22;76964;49.316;7.118;2024-03-29T04:18:51;17.60;75.10
86305;DHT22;76964;49.316;7.118;2024-03-29T04:21:20;17.70;75.20
86305;DHT22;76964;49.316;7.118;2024-03-29T04:23:48;17.80;74.90
86305;DHT22;76964;49.316;7.118;2024-03-29T04:26:14;17.80;74.50
86305;DHT22;76964;49.316;7.118;2024-03-29T04:28:41;17.80;74.40
86305;DHT22;76964;49.316;7.118;2024-03-29T04:31:08;17.80;74.40
86305;DHT22;76964;49.316;7.118;2024-03-29T04:33:35;17.70;74.60
86305;DHT22;76964;49.316;7.118;2024-03-29T04:36:02;17.80;74.60
86305;DHT22;76964;49.316;7.118;2024-03-29T04:38:30;17.80;74.50
86305;DHT22;76964;49.316;7.118;2024-03-29T04:40:59;17.70;74.50
86305;DHT22;76964;49.316;7.118;2024-03-29T04:43:27;17.70;74.60
86305;DHT22;76964;49.316;7.118;2024-03-29T04:46:01;17.70;74.70
86305;DHT22;76964;49.316;7.118;2024-03-29T04:48:30;17.70;75.00
86305;DHT22;76964;49.316;7.118;2024-03-29T04:50:57;17.70;74.80
86305;DHT22;76964;49.316;7.118;2024-03-29T04:53:24;17.70;75.40
86305;DHT22;76964;49.316;7.118;2024-03-29T04:55:54;17.70;74.70
86305;DHT22;76964;49.316;7.118;2024-03-29T04:58:23;17.70;74.90
86305;DHT22;76964;49.316;7.118;2024-03-29T05:00:51;17.70;74.90
86305;DHT22;76964;49.316;7.118;2024-03-29T05:03:19;17.60;75.00
86305;DHT22;76964;49.316;7.118;2024-03-29T05:05:46;17.70;75.00
86305;DHT22;76964;49.316;7.118;2024-03-29T05:08:13;17.70;74.80
86305;DHT22;76964;49.316;7.118;2024-03-29T05:10:40;17.80;74.50
86305;DHT22;76964;49.316;7.118;2024-03-29T05:13:08;17.90;74.10
86305;DHT22;76964;49.316;7.118;2024-03-29T05:15:37;17.90;74.80
86305;DHT22;76964;49.316;7.118;2024-03-29T05:18:04;17.80;74.20
86305;DHT22;76964;49.316;7.118;2024-03-29T05:20:31;17.80;74.50
86305;DHT22;76964;49.316;7.118;2024-03-29T05:22:59;17.80;74.30
86305;DHT22;76964;49.316;7.118;2024-03-29T05:25:26;17.80;75.10
86305;DHT22;76964;49.316;7.118;2024-03-29T05:27:53;17.80;74.50
86305;DHT22;76964;49.316;7.118;2024-03-29T05:30:20;17.70;74.60
86305;DHT22;76964;49.316;7.118;2024-03-29T05:32:51;17.70;74.70
86305;DHT22;76964;49.316;7.118;2024-03-29T05:35:18;17.70;74.90
86305;DHT22;76964;49.316;7.118;2024-03-29T05:37:45;17.70;74.80
86305;DHT22;76964;49.316;7.118;2024-03-29T05:40:16;17.70;74.90
86305;DHT22;76964;49.316;7.118;2024-03-29T05:42:43;17.70;75.00
86305;DHT22;76964;49.316;7.118;2024-03-29T05:45:23;17.60;74.90
86305;DHT22;76964;49.316;7.118;2024-03-29T05:47:53;17.60;75.10
86305;DHT22;76964;49.316;7.118;2024-03-29T05:50:20;17.60;75.10
86305;DHT22;76964;49.316;7.118;2024-03-29T05:52:48;17.70;75.00
86305;DHT22;76964;49.316;7.118;2024-03-29T05:55:15;17.70;74.50
86305;DHT22;76964;49.316;7.118;2024-03-29T05:57:42;17.80;74.60
86305;DHT22;76964;49.316;7.118;2024-03-29T06:00:12;17.70;75.30
86305;DHT22;76964;49.316;7.118;2024-03-29T06:02:40;17.70;74.70
86305;DHT22;76964;49.316;7.118;2024-03-29T06:05:10;17.70;74.70
86305;DHT22;76964;49.316;7.118;2024-03-29T06:07:37;17.70;74.60
86305;DHT22;76964;49.316;7.118;2024-03-29T06:10:05;17.70;74.70
86305;DHT22;76964;49.316;7.118;2024-03-29T06:12:34;17.70;74.80
86305;DHT22;76964;49.316;7.118;2024-03-29T06:15:02;17.70;74.90
86305;DHT22;76964;49.316;7.118;2024-03-29T06:17:46;17.70;74.90
86305;DHT22;76964;49.316;7.118;2024-03-29T06:20:15;17.70;74.90
86305;DHT22;76964;49.316;7.118;2024-03-29T06:22:42;17.70;74.80
86305;DHT22;76964;49.316;7.118;2024-03-29T06:25:09;17.70;74.90
86305;DHT22;76964;49.316;7.118;2024-03-29T06:27:37;17.70;74.90
86305;DHT22;76964;49.316;7.118;2024-03-29T06:30:06;17.70;74.90
86305;DHT22;76964;49.316;7.118;2024-03-29T06:32:34;17.70;75.10
86305;DHT22;76964;49.316;7.118;2024-03-29T06:35:02;17.70;75.00
86305;DHT22;76964;49.316;7.118;2024-03-29T06:37:30;17.80;74.80
86305;DHT22;76964;49.316;7.118;2024-03-29T06:39:57;17.90;74.40
86305;DHT22;76964;49.316;7.118;2024-03-29T06:42:24;17.90;74.10
86305;DHT22;76964;49.316;7.118;2024-03-29T06:44:52;17.90;74.10
86305;DHT22;76964;49.316;7.118;2024-03-29T06:47:20;17.90;74.40
86305;DHT22;76964;49.316;7.118;2024-03-29T06:49:48;17.80;74.40
86305;DHT22;76964;49.316;7.118;2024-03-29T06:52:15;17.80;74.20
86305;DHT22;76964;49.316;7.118;2024-03-29T06:54:43;17.80;74.20
86305;DHT22;76964;49.316;7.118;2024-03-29T06:57:10;17.80;74.40
86305;DHT22;76964;49.316;7.118;2024-03-29T06:59:41;17.70;74.40
86305;DHT22;76964;49.316;7.118;2024-03-29T07:02:08;17.70;74.60
86305;DHT22;76964;49.316;7.118;2024-03-29T07:04:35;17.70;74.80
86305;DHT22;76964;49.316;7.118;2024-03-29T07:07:03;17.70;74.60
86305;DHT22;76964;49.316;7.118;2024-03-29T07:09:30;17.70;74.70
86305;DHT22;76964;49.316;7.118;2024-03-29T07:11:58;17.70;74.70
86305;DHT22;76964;49.316;7.118;2024-03-29T07:14:25;17.60;75.40
86305;DHT22;76964;49.316;7.118;2024-03-29T07:16:54;17.60;74.90
86305;DHT22;76964;49.316;7.118;2024-03-29T07:19:23;17.60;75.00
86305;DHT22;76964;49.316;7.118;2024-03-29T07:21:50;17.70;74.80
86305;DHT22;76964;49.316;7.118;2024-03-29T07:24:19;17.80;74.60
86305;DHT22;76964;49.316;7.118;2024-03-29T07:26:46;17.80;74.30
86305;DHT22;76964;49.316;7.118;2024-03-29T07:29:14;17.80;74.30
86305;DHT22;76964;49.316;7.118;2024-03-29T07:31:41;17.70;74.30
86305;DHT22;76964;49.316;7.118;2024-03-29T07:34:08;17.70;74.70
86305;DHT22;76964;49.316;7.118;2024-03-29T07:36:36;17.70;74.50
86305;DHT22;76964;49.316;7.118;2024-03-29T07:39:05;17.70;74.50
86305;DHT22;76964;49.316;7.118;2024-03-29T07:41:32;17.70;74.60
86305;DHT22;76964;49.316;7.118;2024-03-29T07:43:59;17.70;74.70
86305;DHT22;76964;49.316;7.118;2024-03-29T07:46:33;17.70;74.80
86305;DHT22;76964;49.316;7.118;2024-03-29T07:49:01;17.60;75.00
86305;DHT22;76964;49.316;7.118;2024-03-29T07:51:28;17.60;74.80
86305;DHT22;76964;49.316;7.118;2024-03-29T07:53:55;17.60;74.70
86305;DHT22;76964;49.316;7.118;2024-03-29T07:56:23;17.60;74.80
86305;DHT22;76964;49.316;7.118;2024-03-29T07:58:51;17.60;74.80
86305;DHT22;76964;49.316;7.118;2024-03-29T08:01:20;17.60;74.90
86305;DHT22;76964;49.316;7.118;2024-03-29T08:03:51;17.60;75.20
86305;DHT22;76964;49.316;7.118;2024-03-29T08:06:19;17.70;75.10
86305;DHT22;76964;49.316;7.118;2024-03-29T08:08:46;17.80;74.80
86305;DHT22;76964;49.316;7.118;2024-03-29T08:11:13;17.90;74.50
86305;DHT22;76964;49.316;7.118;2024-03-29T08:13:41;17.90;74.20
86305;DHT22;76964;49.316;7.118;2024-03-29T08:16:11;17.80;74.80
86305;DHT22;76964;49.316;7.118;2024-03-29T08:18:38;17.80;74.60
86305;DHT22;76964;49.316;7.118;2024-03-29T08:21:06;17.80;74.40
86305;DHT22;76964;49.316;7.118;2024-03-29T08:23:39;17.80;74.40
86305;DHT22;76964;49.316;7.118;2024-03-29T08:26:06;17.80;74.60
86305;DHT22;76964;49.316;7.118;2024-03-29T08:28:33;17.70;74.50
86305;DHT22;76964;49.316;7.118;2024-03-29T08:31:08;17.70;74.60
86305;DHT22;76964;49.316;7.118;2024-03-29T08:33:35;17.70;75.00
86305;DHT22;76964;49.316;7.118;2024-03-29T08:36:06;17.70;74.80
86305;DHT22;76964;49.316;7.118;2024-03-29T08:38:34;17.60;74.70
86305;DHT22;76964;49.316;7.118;2024-03-29T08:41:02;17.60;74.80
86305;DHT22;76964;49.316;7.118;2024-03-29T08:43:29;17.60;74.90
86305;DHT22;76964;49.316;7.118;2024-03-29T08:45:56;17.60;74.90
86305;DHT22;76964;49.316;7.118;2024-03-29T08:48:23;17.60;75.10
86305;DHT22;76964;49.316;7.118;2024-03-29T08:50:51;17.60;74.90
86305;DHT22;76964;49.316;7.118;2024-03-29T08:53:19;17.60;74.90
86305;DHT22;76964;49.316;7.118;2024-03-29T08:55:47;17.60;74.90
86305;DHT22;76964;49.316;7.118;2024-03-29T08:58:15;17.60;74.90
86305;DHT22;76964;49.316;7.118;2024-03-29T09:00:43;17.60;75.00
86305;DHT22;76964;49.316;7.118;2024-03-29T09:03:10;17.60;75.20
86305;DHT22;76964;49.316;7.118;2024-03-29T09:05:37;17.70;75.20
86305;DHT22;76964;49.316;7.118;2024-03-29T09:08:05;17.80;74.80
86305;DHT22;76964;49.316;7.118;2024-03-29T09:10:33;17.90;74.50
86305;DHT22;76964;49.316;7.118;2024-03-29T09:13:00;17.90;74.20
86305;DHT22;76964;49.316;7.118;2024-03-29T09:15:28;17.80;74.80
86305;DHT22;76964;49.316;7.118;2024-03-29T09:17:55;17.80;74.60
86305;DHT22;76964;49.316;7.118;2024-03-29T09:20:26;17.80;74.50
86305;DHT22;76964;49.316;7.118;2024-03-29T09:22:53;17.80;74.40
86305;DHT22;76964;49.316;7.118;2024-03-29T09:25:20;17.80;74.50
86305;DHT22;76964;49.316;7.118;2024-03-29T09:27:48;17.70;75.30
86305;DHT22;76964;49.316;7.118;2024-03-29T09:30:15;17.70;74.70
86305;DHT22;76964;49.316;7.118;2024-03-29T09:32:44;17.70;75.00
86305;DHT22;76964;49.316;7.118;2024-03-29T09:35:11;17.60;74.90
86305;DHT22;76964;49.316;7.118;2024-03-29T09:37:38;17.60;74.80
86305;DHT22;76964;49.316;7.118;2024-03-29T09:40:07;17.60;74.90
86305;DHT22;76964;49.316;7.118;2024-03-29T09:42:35;17.60;74.90
86305;DHT22;76964;49.316;7.118;2024-03-29T09:45:07;17.60;75.00
86305;DHT22;76964;49.316;7.118;2024-03-29T09:47:36;17.60;75.30
86305;DHT22;76964;49.316;7.118;2024-03-29T09:50:07;17.60;75.10
86305;DHT22;76964;49.316;7.118;2024-03-29T09:52:35;17.60;75.10
86305;DHT22;76964;49.316;7.118;2024-03-29T09:55:03;17.60;75.10
86305;DHT22;76964;49.316;7.118;2024-03-29T09:57:31;17.60;75.10
86305;DHT22;76964;49.316;7.118;2024-03-29T09:59:58;17.60;75.10
86305;DHT22;76964;49.316;7.118;2024-03-29T10:02:29;17.60;75.40
86305;DHT22;76964;49.316;7.118;2024-03-29T10:04:57;17.60;75.30
86305;DHT22;76964;49.316;7.118;2024-03-29T10:07:29;17.70;75.10
86305;DHT22;76964;49.316;7.118;2024-03-29T10:09:57;17.80;74.70
86305;DHT22;76964;49.316;7.118;2024-03-29T10:12:24;17.80;74.40
86305;DHT22;76964;49.316;7.118;2024-03-29T10:14:51;17.80;74.40
86305;DHT22;76964;49.316;7.118;2024-03-29T10:17:21;17.80;74.70
86305;DHT22;76964;49.316;7.118;2024-03-29T10:19:50;17.80;74.60
86305;DHT22;76964;49.316;7.118;2024-03-29T10:22:17;17.80;74.60
86305;DHT22;76964;49.316;7.118;2024-03-29T10:24:44;17.80;74.60
86305;DHT22;76964;49.316;7.118;2024-03-29T10:27:11;17.70;74.60
86305;DHT22;76964;49.316;7.118;2024-03-29T10:29:40;17.70;74.80
86305;DHT22;76964;49.316;7.118;2024-03-29T10:32:08;17.60;75.80
86305;DHT22;76964;49.316;7.118;2024-03-29T10:34:35;17.60;74.90
86305;DHT22;76964;49.316;7.118;2024-03-29T10:37:04;17.60;74.90
86305;DHT22;76964;49.316;7.118;2024-03-29T10:39:32;17.60;75.00
86305;DHT22;76964;49.316;7.118;2024-03-29T10:42:00;17.60;75.10
86305;DHT22;76964;49.316;7.118;2024-03-29T10:44:28;17.60;75.10
86305;DHT22;76964;49.316;7.118;2024-03-29T10:46:56;17.60;75.40
86305;DHT22;76964;49.316;7.118;2024-03-29T10:49:24;17.60;75.40
86305;DHT22;76964;49.316;7.118;2024-03-29T10:51:53;17.70;75.10
86305;DHT22;76964;49.316;7.118;2024-03-29T10:54:23;17.70;74.80
86305;DHT22;76964;49.316;7.118;2024-03-29T10:56:58;17.70;74.80
86305;DHT22;76964;49.316;7.118;2024-03-29T10:59:34;17.70;74.90
86305;DHT22;76964;49.316;7.118;2024-03-29T11:02:11;17.70;75.20
86305;DHT22;76964;49.316;7.118;2024-03-29T11:04:39;17.70;75.00
86305;DHT22;76964;49.316;7.118;2024-03-29T11:07:13;17.70;75.00
86305;DHT22;76964;49.316;7.118;2024-03-29T11:09:44;17.60;75.00
86305;DHT22;76964;49.316;7.118;2024-03-29T11:12:16;17.60;75.10
86305;DHT22;76964;49.316;7.118;2024-03-29T11:14:47;17.60;75.10
86305;DHT22;76964;49.316;7.118;2024-03-29T11:17:21;17.60;75.40
86305;DHT22;76964;49.316;7.118;2024-03-29T11:19:49;17.60;75.20
86305;DHT22;76964;49.316;7.118;2024-03-29T11:22:16;17.60;75.20
86305;DHT22;76964;49.316;7.118;2024-03-29T11:24:44;17.60;75.20
86305;DHT22;76964;49.316;7.118;2024-03-29T11:27:12;17.60;75.30
86305;DHT22;76964;49.316;7.118;2024-03-29T11:29:41;17.60;75.40
86305;DHT22;76964;49.316;7.118;2024-03-29T11:32:11;17.50;75.40
86305;DHT22;76964;49.316;7.118;2024-03-29T11:34:43;17.60;75.50
86305;DHT22;76964;49.316;7.118;2024-03-29T11:37:11;17.70;75.30
86305;DHT22;76964;49.316;7.118;2024-03-29T11:39:39;17.80;74.90
86305;DHT22;76964;49.316;7.118;2024-03-29T11:42:07;17.80;74.60
86305;DHT22;76964;49.316;7.118;2024-03-29T11:44:35;17.80;74.50
86305;DHT22;76964;49.316;7.118;2024-03-29T11:47:04;17.80;74.80
86305;DHT22;76964;49.316;7.118;2024-03-29T11:49:33;17.80;74.80
86305;DHT22;76964;49.316;7.118;2024-03-29T11:52:05;17.80;74.70
86305;DHT22;76964;49.316;7.118;2024-03-29T11:54:39;17.70;74.70
86305;DHT22;76964;49.316;7.118;2024-03-29T11:57:07;17.70;74.90
86305;DHT22;76964;49.316;7.118;2024-03-29T11:59:34;17.70;75.00
86305;DHT22;76964;49.316;7.118;2024-03-29T12:02:01;17.60;75.20
86305;DHT22;76964;49.316;7.118;2024-03-29T12:04:29;17.60;75.10
86305;DHT22;76964;49.316;7.118;2024-03-29T12:06:56;17.60;75.10
86305;DHT22;76964;49.316;7.118;2024-03-29T12:09:23;17.60;75.10
86305;DHT22;76964;49.316;7.118;2024-03-29T12:11:50;17.60;75.10
86305;DHT22;76964;49.316;7.118;2024-03-29T12:14:19;17.60;75.30
86305;DHT22;76964;49.316;7.118;2024-03-29T12:16:48;17.60;75.40
86305;DHT22;76964;49.316;7.118;2024-03-29T12:19:23;17.60;75.10
86305;DHT22;76964;49.316;7.118;2024-03-29T12:21:50;17.60;75.00
86305;DHT22;76964;49.316;7.118;2024-03-29T12:24:18;17.60;75.00
86305;DHT22;76964;49.316;7.118;2024-03-29T12:26:45;17.60;74.80
86305;DHT22;76964;49.316;7.118;2024-03-29T12:29:11;17.60;74.80
86305;DHT22;76964;49.316;7.118;2024-03-29T12:31:40;17.60;74.80
86305;DHT22;76964;49.316;7.118;2024-03-29T12:34:07;17.60;74.50
86305;DHT22;76964;49.316;7.118;2024-03-29T12:36:34;17.70;74.40
86305;DHT22;76964;49.316;7.118;2024-03-29T12:39:03;17.80;74.10
86305;DHT22;76964;49.316;7.118;2024-03-29T12:41:31;17.80;74.50
86305;DHT22;76964;49.316;7.118;2024-03-29T12:44:00;17.80;73.90
86305;DHT22;76964;49.316;7.118;2024-03-29T12:46:28;17.80;74.80
86305;DHT22;76964;49.316;7.118;2024-03-29T12:49:00;17.80;73.90
86305;DHT22;76964;49.316;7.118;2024-03-29T12:51:27;17.80;74.10
86305;DHT22;76964;49.316;7.118;2024-03-29T12:53:55;17.70;74.10
86305;DHT22;76964;49.316;7.118;2024-03-29T12:56:26;17.70;74.30
86305;DHT22;76964;49.316;7.118;2024-03-29T12:58:53;17.70;74.40
86305;DHT22;76964;49.316;7.118;2024-03-29T13:01:21;17.70;74.50
86305;DHT22;76964;49.316;7.118;2024-03-29T13:03:48;17.60;74.30
86305;DHT22;76964;49.316;7.118;2024-03-29T13:06:16;17.60;74.40
86305;DHT22;76964;49.316;7.118;2024-03-29T13:08:44;17.60;74.50
86305;DHT22;76964;49.316;7.118;2024-03-29T13:11:11;17.60;74.50
86305;DHT22;76964;49.316;7.118;2024-03-29T13:13:38;17.60;74.70
86305;DHT22;76964;49.316;7.118;2024-03-29T13:16:05;17.60;74.70
86305;DHT22;76964;49.316;7.118;2024-03-29T13:18:33;17.60;74.50
86305;DHT22;76964;49.316;7.118;2024-03-29T13:21:04;17.60;74.40
86305;DHT22;76964;49.316;7.118;2024-03-29T13:23:33;17.70;74.20
86305;DHT22;76964;49.316;7.118;2024-03-29T13:26:00;17.80;73.90
86305;DHT22;76964;49.316;7.118;2024-03-29T13:28:27;17.80;73.90
86305;DHT22;76964;49.316;7.118;2024-03-29T13:30:54;17.80;74.10
86305;DHT22;76964;49.316;7.118;2024-03-29T13:33:22;17.80;74.10
86305;DHT22;76964;49.316;7.118;2024-03-29T13:35:53;17.70;74.00
86305;DHT22;76964;49.316;7.118;2024-03-29T13:38:22;17.70;74.10
86305;DHT22;76964;49.316;7.118;2024-03-29T13:40:53;17.70;74.30
86305;DHT22;76964;49.316;7.118;2024-03-29T13:43:22;17.70;74.40
86305;DHT22;76964;49.316;7.118;2024-03-29T13:45:49;17.60;74.40
86305;DHT22;76964;49.316;7.118;2024-03-29T13:48:17;17.60;74.50
86305;DHT22;76964;49.316;7.118;2024-03-29T13:50:44;17.60;74.40
86305;DHT22;76964;49.316;7.118;2024-03-29T13:53:11;17.60;74.50
86305;DHT22;76964;49.316;7.118;2024-03-29T13:55:39;17.60;74.60
86305;DHT22;76964;49.316;7.118;2024-03-29T13:58:09;17.60;74.70
86305;DHT22;76964;49.316;7.118;2024-03-29T14:00:36;17.60;74.80
86305;DHT22;76964;49.316;7.118;2024-03-29T14:03:04;17.60;74.80
86305;DHT22;76964;49.316;7.118;2024-03-29T14:05:31;17.60;74.90
86305;DHT22;76964;49.316;7.118;2024-03-29T14:07:58;17.60;75.10
86305;DHT22;76964;49.316;7.118;2024-03-29T14:10:25;17.60;75.10
86305;DHT22;76964;49.316;7.118;2024-03-29T14:12:52;17.60;75.10
86305;DHT22;76964;49.316;7.118;2024-03-29T14:15:21;17.60;75.20
86305;DHT22;76964;49.316;7.118;2024-03-29T14:17:48;17.60;75.40
86305;DHT22;76964;49.316;7.118;2024-03-29T14:20:17;17.70;75.30
86305;DHT22;76964;49.316;7.118;2024-03-29T14:22:44;17.80;74.90
86305;DHT22;76964;49.316;7.118;2024-03-29T14:25:12;17.90;74.50
86305;DHT22;76964;49.316;7.118;2024-03-29T14:27:39;18.10;74.10
86305;DHT22;76964;49.316;7.118;2024-03-29T14:30:13;18.30;73.50
86305;DHT22;76964;49.316;7.118;2024-03-29T14:32:46;18.50;72.90
86305;DHT22;76964;49.316;7.118;2024-03-29T14:35:13;18.60;72.40
86305;DHT22;76964;49.316;7.118;2024-03-29T14:37:41;18.70;72.00
86305;DHT22;76964;49.316;7.118;2024-03-29T14:40:09;18.80;71.70
86305;DHT22;76964;49.316;7.118;2024-03-29T14:42:38;18.90;71.50
86305;DHT22;76964;49.316;7.118;2024-03-29T14:45:06;19.00;71.30
86305;DHT22;76964;49.316;7.118;2024-03-29T14:47:33;19.00;71.50
86305;DHT22;76964;49.316;7.118;2024-03-29T14:50:03;18.90;71.60
86305;DHT22;76964;49.316;7.118;2024-03-29T14:52:33;18.70;71.80
86305;DHT22;76964;49.316;7.118;2024-03-29T14:55:01;18.60;72.40
86305;DHT22;76964;49.316;7.118;2024-03-29T14:57:28;18.50;73.20
86305;DHT22;76964;49.316;7.118;2024-03-29T14:59:55;18.40;73.20
86305;DHT22;76964;49.316;7.118;2024-03-29T15:02:22;18.30;73.30
86305;DHT22;76964;49.316;7.118;2024-03-29T15:04:49;18.20;73.70
86305;DHT22;76964;49.316;7.118;2024-03-29T15:07:18;18.10;73.80
86305;DHT22;76964;49.316;7.118;2024-03-29T15:09:45;18.10;74.30
86305;DHT22;76964;49.316;7.118;2024-03-29T15:12:12;18.00;74.60
86305;DHT22;76964;49.316;7.118;2024-03-29T15:14:39;18.00;74.60
86305;DHT22;76964;49.316;7.118;2024-03-29T15:17:06;18.00;74.80
86305;DHT22;76964;49.316;7.118;2024-03-29T15:19:32;17.90;74.80
86305;DHT22;76964;49.316;7.118;2024-03-29T15:22:00;17.90;75.00
86305;DHT22;76964;49.316;7.118;2024-03-29T15:24:30;17.90;75.20
86305;DHT22;76964;49.316;7.118;2024-03-29T15:26:57;17.90;75.30
86305;DHT22;76964;49.316;7.118;2024-03-29T15:29:26;17.90;75.10
86305;DHT22;76964;49.316;7.118;2024-03-29T15:31:52;18.00;74.80
86305;DHT22;76964;49.316;7.118;2024-03-29T15:34:21;18.10;74.50